sensor_id;sensor_type;location;lat;lon;timestamp;P1;durP1;ratioP1;P2;durP2;ratioP2
15228;SDS011;7717;47.792;12.076;2022-07-18T00:01:33;5.93;;;5.30;;
15228;SDS011;7717;47.792;12.076;2022-07-18T00:03:58;5.07;;;4.67;;
15228;SDS011;7717;47.792;12.076;2022-07-18T00:06:24;4.87;;;4.47;;
15228;SDS011;7717;47.792;12.076;2022-07-18T00:08:49;5.57;;;4.83;;
15228;SDS011;7717;47.792;12.076;2022-07-18T00:11:14;5.33;;;4.87;;
15228;SDS011;7717;47.792;12.076;2022-07-18T00:13:40;4.73;;;4.37;;
15228;SDS011;7717;47.792;12.076;2022-07-18T00:16:05;4.83;;;4.40;;
15228;SDS011;7717;47.792;12.076;2022-07-18T00:18:30;5.90;;;4.70;;
15228;SDS011;7717;47.792;12.076;2022-07-18T00:20:55;5.60;;;5.10;;
15228;SDS011;7717;47.792;12.076;2022-07-18T00:23:21;5.40;;;4.80;;
15228;SDS011;7717;47.792;12.076;2022-07-18T00:25:46;5.83;;;5.10;;
15228;SDS011;7717;47.792;12.076;2022-07-18T00:28:11;4.70;;;4.40;;
15228;SDS011;7717;47.792;12.076;2022-07-18T00:30:37;5.20;;;4.80;;
15228;SDS011;7717;47.792;12.076;2022-07-18T00:33:02;5.40;;;4.90;;
15228;SDS011;7717;47.792;12.076;2022-07-18T00:35:27;5.13;;;4.63;;
15228;SDS011;7717;47.792;12.076;2022-07-18T00:37:53;5.47;;;4.97;;
15228;SDS011;7717;47.792;12.076;2022-07-18T00:40:18;5.63;;;5.13;;
15228;SDS011;7717;47.792;12.076;2022-07-18T00:42:43;5.50;;;5.00;;
15228;SDS011;7717;47.792;12.076;2022-07-18T00:45:09;5.40;;;5.00;;
15228;SDS011;7717;47.792;12.076;2022-07-18T00:47:35;5.73;;;5.20;;
15228;SDS011;7717;47.792;12.076;2022-07-18T00:50:00;6.53;;;5.60;;
15228;SDS011;7717;47.792;12.076;2022-07-18T00:52:27;5.60;;;5.20;;
15228;SDS011;7717;47.792;12.076;2022-07-18T00:54:55;6.00;;;5.47;;
15228;SDS011;7717;47.792;12.076;2022-07-18T00:57:20;5.87;;;5.37;;
15228;SDS011;7717;47.792;12.076;2022-07-18T00:59:45;5.87;;;5.47;;
15228;SDS011;7717;47.792;12.076;2022-07-18T01:02:30;5.57;;;5.17;;
15228;SDS011;7717;47.792;12.076;2022-07-18T01:04:55;6.23;;;5.67;;
15228;SDS011;7717;47.792;12.076;2022-07-18T01:07:20;6.27;;;5.60;;
15228;SDS011;7717;47.792;12.076;2022-07-18T01:09:45;5.77;;;5.27;;
15228;SDS011;7717;47.792;12.076;2022-07-18T01:12:11;9.20;;;5.57;;
15228;SDS011;7717;47.792;12.076;2022-07-18T01:14:36;6.10;;;5.60;;
15228;SDS011;7717;47.792;12.076;2022-07-18T01:17:02;5.57;;;5.07;;
15228;SDS011;7717;47.792;12.076;2022-07-18T01:19:27;6.40;;;5.80;;
15228;SDS011;7717;47.792;12.076;2022-07-18T01:21:52;8.10;;;6.10;;
15228;SDS011;7717;47.792;12.076;2022-07-18T01:24:18;6.87;;;6.23;;
15228;SDS011;7717;47.792;12.076;2022-07-18T01:26:43;6.27;;;5.67;;
15228;SDS011;7717;47.792;12.076;2022-07-18T01:29:08;7.23;;;6.47;;
15228;SDS011;7717;47.792;12.076;2022-07-18T01:31:33;5.90;;;5.47;;
15228;SDS011;7717;47.792;12.076;2022-07-18T01:33:59;6.67;;;6.07;;
15228;SDS011;7717;47.792;12.076;2022-07-18T01:36:25;6.70;;;6.10;;
15228;SDS011;7717;47.792;12.076;2022-07-18T01:38:50;6.33;;;5.83;;
15228;SDS011;7717;47.792;12.076;2022-07-18T01:41:15;8.37;;;6.07;;
15228;SDS011;7717;47.792;12.076;2022-07-18T01:43:41;6.77;;;6.17;;
15228;SDS011;7717;47.792;12.076;2022-07-18T01:46:08;8.63;;;6.13;;
15228;SDS011;7717;47.792;12.076;2022-07-18T01:48:35;6.50;;;5.90;;
15228;SDS011;7717;47.792;12.076;2022-07-18T01:51:01;7.10;;;6.50;;
15228;SDS011;7717;47.792;12.076;2022-07-18T01:53:26;6.80;;;6.20;;
15228;SDS011;7717;47.792;12.076;2022-07-18T01:55:52;7.00;;;6.40;;
15228;SDS011;7717;47.792;12.076;2022-07-18T01:58:18;7.07;;;6.47;;
15228;SDS011;7717;47.792;12.076;2022-07-18T02:00:43;7.00;;;6.43;;
15228;SDS011;7717;47.792;12.076;2022-07-18T02:03:08;7.60;;;6.93;;
15228;SDS011;7717;47.792;12.076;2022-07-18T02:05:33;7.30;;;6.70;;
15228;SDS011;7717;47.792;12.076;2022-07-18T02:07:59;6.63;;;6.03;;
15228;SDS011;7717;47.792;12.076;2022-07-18T02:10:24;6.80;;;6.20;;
15228;SDS011;7717;47.792;12.076;2022-07-18T02:12:49;6.07;;;5.67;;
15228;SDS011;7717;47.792;12.076;2022-07-18T02:15:15;7.23;;;6.53;;
15228;SDS011;7717;47.792;12.076;2022-07-18T02:17:41;6.97;;;6.30;;
15228;SDS011;7717;47.792;12.076;2022-07-18T02:20:07;6.53;;;5.97;;
15228;SDS011;7717;47.792;12.076;2022-07-18T02:22:32;7.67;;;6.50;;
15228;SDS011;7717;47.792;12.076;2022-07-18T02:24:58;6.40;;;5.90;;
15228;SDS011;7717;47.792;12.076;2022-07-18T02:27:23;6.47;;;5.87;;
15228;SDS011;7717;47.792;12.076;2022-07-18T02:29:49;7.07;;;6.43;;
15228;SDS011;7717;47.792;12.076;2022-07-18T02:32:14;7.20;;;6.50;;
15228;SDS011;7717;47.792;12.076;2022-07-18T02:34:40;6.97;;;6.37;;
15228;SDS011;7717;47.792;12.076;2022-07-18T02:37:05;6.50;;;5.90;;
15228;SDS011;7717;47.792;12.076;2022-07-18T02:39:30;7.03;;;6.43;;
15228;SDS011;7717;47.792;12.076;2022-07-18T02:41:56;7.07;;;5.87;;
15228;SDS011;7717;47.792;12.076;2022-07-18T02:44:21;6.57;;;6.07;;
15228;SDS011;7717;47.792;12.076;2022-07-18T02:46:47;6.70;;;6.10;;
15228;SDS011;7717;47.792;12.076;2022-07-18T02:49:12;7.00;;;6.40;;
15228;SDS011;7717;47.792;12.076;2022-07-18T02:51:52;6.50;;;6.00;;
15228;SDS011;7717;47.792;12.076;2022-07-18T02:54:17;6.97;;;6.10;;
15228;SDS011;7717;47.792;12.076;2022-07-18T02:56:42;6.47;;;5.87;;
15228;SDS011;7717;47.792;12.076;2022-07-18T02:59:07;6.20;;;5.70;;
15228;SDS011;7717;47.792;12.076;2022-07-18T03:01:33;5.97;;;5.37;;
15228;SDS011;7717;47.792;12.076;2022-07-18T03:03:58;7.83;;;6.13;;
15228;SDS011;7717;47.792;12.076;2022-07-18T03:06:24;6.87;;;6.10;;
15228;SDS011;7717;47.792;12.076;2022-07-18T03:08:49;6.13;;;5.63;;
15228;SDS011;7717;47.792;12.076;2022-07-18T03:11:14;6.63;;;6.03;;
15228;SDS011;7717;47.792;12.076;2022-07-18T03:13:40;6.40;;;5.90;;
15228;SDS011;7717;47.792;12.076;2022-07-18T03:16:05;7.17;;;6.47;;
15228;SDS011;7717;47.792;12.076;2022-07-18T03:18:30;7.03;;;6.43;;
15228;SDS011;7717;47.792;12.076;2022-07-18T03:20:56;6.47;;;5.87;;
15228;SDS011;7717;47.792;12.076;2022-07-18T03:23:21;6.67;;;6.10;;
15228;SDS011;7717;47.792;12.076;2022-07-18T03:25:46;6.63;;;6.13;;
15228;SDS011;7717;47.792;12.076;2022-07-18T03:28:12;6.40;;;5.90;;
15228;SDS011;7717;47.792;12.076;2022-07-18T03:30:37;6.37;;;5.87;;
15228;SDS011;7717;47.792;12.076;2022-07-18T03:33:02;7.03;;;6.33;;
15228;SDS011;7717;47.792;12.076;2022-07-18T03:35:28;7.40;;;6.70;;
15228;SDS011;7717;47.792;12.076;2022-07-18T03:37:53;6.70;;;6.17;;
15228;SDS011;7717;47.792;12.076;2022-07-18T03:40:18;7.67;;;6.97;;
15228;SDS011;7717;47.792;12.076;2022-07-18T03:42:43;7.67;;;6.93;;
15228;SDS011;7717;47.792;12.076;2022-07-18T03:45:08;6.97;;;6.37;;
15228;SDS011;7717;47.792;12.076;2022-07-18T03:47:34;6.80;;;6.20;;
15228;SDS011;7717;47.792;12.076;2022-07-18T03:49:59;7.10;;;6.57;;
15228;SDS011;7717;47.792;12.076;2022-07-18T03:52:24;7.10;;;6.40;;
15228;SDS011;7717;47.792;12.076;2022-07-18T03:54:50;6.87;;;6.37;;
15228;SDS011;7717;47.792;12.076;2022-07-18T03:57:15;6.93;;;6.20;;
15228;SDS011;7717;47.792;12.076;2022-07-18T03:59:40;7.77;;;6.40;;
15228;SDS011;7717;47.792;12.076;2022-07-18T04:02:05;7.90;;;6.73;;
15228;SDS011;7717;47.792;12.076;2022-07-18T04:04:31;6.93;;;6.33;;
15228;SDS011;7717;47.792;12.076;2022-07-18T04:06:56;6.60;;;6.00;;
15228;SDS011;7717;47.792;12.076;2022-07-18T04:09:24;6.67;;;6.03;;
15228;SDS011;7717;47.792;12.076;2022-07-18T04:11:49;5.83;;;5.43;;
15228;SDS011;7717;47.792;12.076;2022-07-18T04:14:15;6.37;;;5.87;;
15228;SDS011;7717;47.792;12.076;2022-07-18T04:16:40;6.40;;;5.90;;
15228;SDS011;7717;47.792;12.076;2022-07-18T04:19:05;6.50;;;6.00;;
15228;SDS011;7717;47.792;12.076;2022-07-18T04:21:30;7.73;;;7.03;;
15228;SDS011;7717;47.792;12.076;2022-07-18T04:23:58;6.77;;;6.00;;
15228;SDS011;7717;47.792;12.076;2022-07-18T04:26:23;6.77;;;6.17;;
15228;SDS011;7717;47.792;12.076;2022-07-18T04:28:49;6.87;;;6.27;;
15228;SDS011;7717;47.792;12.076;2022-07-18T04:31:14;6.27;;;5.77;;
15228;SDS011;7717;47.792;12.076;2022-07-18T04:33:39;6.53;;;6.03;;
15228;SDS011;7717;47.792;12.076;2022-07-18T04:36:05;6.77;;;6.20;;
15228;SDS011;7717;47.792;12.076;2022-07-18T04:38:31;6.90;;;6.30;;
15228;SDS011;7717;47.792;12.076;2022-07-18T04:40:59;8.03;;;7.27;;
15228;SDS011;7717;47.792;12.076;2022-07-18T04:43:24;7.70;;;7.00;;
15228;SDS011;7717;47.792;12.076;2022-07-18T04:45:49;8.90;;;8.03;;
15228;SDS011;7717;47.792;12.076;2022-07-18T04:48:15;8.13;;;7.30;;
15228;SDS011;7717;47.792;12.076;2022-07-18T04:50:40;8.37;;;7.60;;
15228;SDS011;7717;47.792;12.076;2022-07-18T04:53:05;9.03;;;8.13;;
15228;SDS011;7717;47.792;12.076;2022-07-18T04:55:33;7.50;;;6.90;;
15228;SDS011;7717;47.792;12.076;2022-07-18T04:57:59;7.10;;;6.50;;
15228;SDS011;7717;47.792;12.076;2022-07-18T05:00:24;7.40;;;6.70;;
15228;SDS011;7717;47.792;12.076;2022-07-18T05:02:50;6.97;;;6.37;;
15228;SDS011;7717;47.792;12.076;2022-07-18T05:05:16;6.87;;;6.27;;
15228;SDS011;7717;47.792;12.076;2022-07-18T05:07:42;6.97;;;6.40;;
15228;SDS011;7717;47.792;12.076;2022-07-18T05:10:09;7.00;;;6.40;;
15228;SDS011;7717;47.792;12.076;2022-07-18T05:12:35;7.63;;;6.63;;
15228;SDS011;7717;47.792;12.076;2022-07-18T05:15:00;6.90;;;6.27;;
15228;SDS011;7717;47.792;12.076;2022-07-18T05:17:25;7.00;;;6.37;;
15228;SDS011;7717;47.792;12.076;2022-07-18T05:19:51;6.97;;;6.27;;
15228;SDS011;7717;47.792;12.076;2022-07-18T05:22:16;6.60;;;6.00;;
15228;SDS011;7717;47.792;12.076;2022-07-18T05:24:41;6.60;;;6.10;;
15228;SDS011;7717;47.792;12.076;2022-07-18T05:27:06;7.10;;;5.83;;
15228;SDS011;7717;47.792;12.076;2022-07-18T05:29:32;6.30;;;5.73;;
15228;SDS011;7717;47.792;12.076;2022-07-18T05:31:57;6.73;;;6.13;;
15228;SDS011;7717;47.792;12.076;2022-07-18T05:34:23;6.27;;;5.43;;
15228;SDS011;7717;47.792;12.076;2022-07-18T05:36:52;5.93;;;5.30;;
15228;SDS011;7717;47.792;12.076;2022-07-18T05:39:18;6.87;;;5.67;;
15228;SDS011;7717;47.792;12.076;2022-07-18T05:41:43;5.30;;;4.90;;
15228;SDS011;7717;47.792;12.076;2022-07-18T05:44:08;6.03;;;5.63;;
15228;SDS011;7717;47.792;12.076;2022-07-18T05:46:34;5.53;;;5.03;;
15228;SDS011;7717;47.792;12.076;2022-07-18T05:48:59;7.53;;;4.90;;
15228;SDS011;7717;47.792;12.076;2022-07-18T05:51:25;5.70;;;5.10;;
15228;SDS011;7717;47.792;12.076;2022-07-18T05:53:50;4.40;;;4.10;;
15228;SDS011;7717;47.792;12.076;2022-07-18T05:56:16;5.10;;;4.70;;
15228;SDS011;7717;47.792;12.076;2022-07-18T05:58:41;5.17;;;3.97;;
15228;SDS011;7717;47.792;12.076;2022-07-18T06:01:06;4.57;;;4.17;;
15228;SDS011;7717;47.792;12.076;2022-07-18T06:03:32;5.07;;;4.20;;
15228;SDS011;7717;47.792;12.076;2022-07-18T06:05:57;4.60;;;4.30;;
15228;SDS011;7717;47.792;12.076;2022-07-18T06:08:22;4.50;;;4.00;;
15228;SDS011;7717;47.792;12.076;2022-07-18T06:10:47;4.50;;;3.87;;
15228;SDS011;7717;47.792;12.076;2022-07-18T06:13:13;3.80;;;3.50;;
15228;SDS011;7717;47.792;12.076;2022-07-18T06:15:38;4.30;;;3.90;;
15228;SDS011;7717;47.792;12.076;2022-07-18T06:18:03;4.57;;;4.17;;
15228;SDS011;7717;47.792;12.076;2022-07-18T06:20:29;4.30;;;4.00;;
15228;SDS011;7717;47.792;12.076;2022-07-18T06:22:54;3.93;;;3.60;;
15228;SDS011;7717;47.792;12.076;2022-07-18T06:25:19;3.73;;;3.43;;
15228;SDS011;7717;47.792;12.076;2022-07-18T06:27:45;3.70;;;3.40;;
15228;SDS011;7717;47.792;12.076;2022-07-18T06:30:10;4.43;;;3.47;;
15228;SDS011;7717;47.792;12.076;2022-07-18T06:32:36;4.47;;;3.70;;
15228;SDS011;7717;47.792;12.076;2022-07-18T06:35:02;4.67;;;3.60;;
15228;SDS011;7717;47.792;12.076;2022-07-18T06:37:27;3.80;;;3.50;;
15228;SDS011;7717;47.792;12.076;2022-07-18T06:39:52;5.03;;;3.30;;
15228;SDS011;7717;47.792;12.076;2022-07-18T06:42:17;4.83;;;3.70;;
15228;SDS011;7717;47.792;12.076;2022-07-18T06:44:43;3.87;;;3.57;;
15228;SDS011;7717;47.792;12.076;2022-07-18T06:47:08;4.30;;;3.57;;
15228;SDS011;7717;47.792;12.076;2022-07-18T06:49:33;4.20;;;3.60;;
15228;SDS011;7717;47.792;12.076;2022-07-18T06:51:58;3.80;;;3.57;;
15228;SDS011;7717;47.792;12.076;2022-07-18T06:54:24;4.33;;;3.93;;
15228;SDS011;7717;47.792;12.076;2022-07-18T06:56:53;4.07;;;3.67;;
15228;SDS011;7717;47.792;12.076;2022-07-18T06:59:18;3.93;;;3.43;;
15228;SDS011;7717;47.792;12.076;2022-07-18T07:01:43;3.80;;;3.40;;
15228;SDS011;7717;47.792;12.076;2022-07-18T07:04:08;3.90;;;3.50;;
15228;SDS011;7717;47.792;12.076;2022-07-18T07:06:34;3.80;;;3.50;;
15228;SDS011;7717;47.792;12.076;2022-07-18T07:08:59;4.00;;;3.70;;
15228;SDS011;7717;47.792;12.076;2022-07-18T07:11:24;4.03;;;3.57;;
15228;SDS011;7717;47.792;12.076;2022-07-18T07:13:49;4.30;;;3.90;;
15228;SDS011;7717;47.792;12.076;2022-07-18T07:16:15;4.07;;;3.67;;
15228;SDS011;7717;47.792;12.076;2022-07-18T07:18:40;3.57;;;3.30;;
15228;SDS011;7717;47.792;12.076;2022-07-18T07:21:06;4.03;;;3.57;;
15228;SDS011;7717;47.792;12.076;2022-07-18T07:23:31;3.80;;;3.50;;
15228;SDS011;7717;47.792;12.076;2022-07-18T07:25:56;3.53;;;3.23;;
15228;SDS011;7717;47.792;12.076;2022-07-18T07:28:21;4.90;;;3.50;;
15228;SDS011;7717;47.792;12.076;2022-07-18T07:30:47;3.60;;;3.30;;
15228;SDS011;7717;47.792;12.076;2022-07-18T07:33:12;3.60;;;3.30;;
15228;SDS011;7717;47.792;12.076;2022-07-18T07:35:37;3.70;;;3.20;;
15228;SDS011;7717;47.792;12.076;2022-07-18T07:38:05;3.63;;;3.30;;
15228;SDS011;7717;47.792;12.076;2022-07-18T07:40:30;3.47;;;3.17;;
15228;SDS011;7717;47.792;12.076;2022-07-18T07:43:09;3.37;;;3.07;;
15228;SDS011;7717;47.792;12.076;2022-07-18T07:45:34;3.53;;;3.20;;
15228;SDS011;7717;47.792;12.076;2022-07-18T07:47:59;3.20;;;3.00;;
15228;SDS011;7717;47.792;12.076;2022-07-18T07:50:25;3.27;;;3.07;;
15228;SDS011;7717;47.792;12.076;2022-07-18T07:52:50;3.20;;;3.00;;
15228;SDS011;7717;47.792;12.076;2022-07-18T07:55:15;3.30;;;2.92;;
15228;SDS011;7717;47.792;12.076;2022-07-18T07:57:40;3.08;;;2.88;;
15228;SDS011;7717;47.792;12.076;2022-07-18T08:00:06;6.80;;;3.03;;
15228;SDS011;7717;47.792;12.076;2022-07-18T08:02:32;3.50;;;2.92;;
15228;SDS011;7717;47.792;12.076;2022-07-18T08:04:57;3.03;;;2.83;;
15228;SDS011;7717;47.792;12.076;2022-07-18T08:07:23;3.47;;;3.08;;
15228;SDS011;7717;47.792;12.076;2022-07-18T08:09:49;4.05;;;2.60;;
15228;SDS011;7717;47.792;12.076;2022-07-18T08:12:14;3.33;;;3.03;;
15228;SDS011;7717;47.792;12.076;2022-07-18T08:14:39;3.22;;;3.03;;
15228;SDS011;7717;47.792;12.076;2022-07-18T08:17:06;3.63;;;2.92;;
15228;SDS011;7717;47.792;12.076;2022-07-18T08:19:31;3.75;;;3.45;;
15228;SDS011;7717;47.792;12.076;2022-07-18T08:21:56;3.30;;;3.00;;
15228;SDS011;7717;47.792;12.076;2022-07-18T08:24:21;3.50;;;3.20;;
15228;SDS011;7717;47.792;12.076;2022-07-18T08:26:47;3.63;;;3.25;;
15228;SDS011;7717;47.792;12.076;2022-07-18T08:29:12;5.63;;;3.70;;
15228;SDS011;7717;47.792;12.076;2022-07-18T08:31:37;3.08;;;2.88;;
15228;SDS011;7717;47.792;12.076;2022-07-18T08:34:02;3.30;;;3.10;;
15228;SDS011;7717;47.792;12.076;2022-07-18T08:36:28;3.45;;;3.15;;
15228;SDS011;7717;47.792;12.076;2022-07-18T08:38:53;4.03;;;3.03;;
15228;SDS011;7717;47.792;12.076;2022-07-18T08:41:18;3.92;;;3.63;;
15228;SDS011;7717;47.792;12.076;2022-07-18T08:43:47;4.68;;;3.03;;
15228;SDS011;7717;47.792;12.076;2022-07-18T08:46:13;3.38;;;3.10;;
15228;SDS011;7717;47.792;12.076;2022-07-18T08:48:39;3.55;;;3.25;;
15228;SDS011;7717;47.792;12.076;2022-07-18T08:51:05;3.90;;;3.50;;
15228;SDS011;7717;47.792;12.076;2022-07-18T08:53:30;3.47;;;3.17;;
15228;SDS011;7717;47.792;12.076;2022-07-18T08:55:57;3.22;;;2.92;;
15228;SDS011;7717;47.792;12.076;2022-07-18T08:58:22;4.47;;;3.13;;
15228;SDS011;7717;47.792;12.076;2022-07-18T09:00:47;3.97;;;3.28;;
15228;SDS011;7717;47.792;12.076;2022-07-18T09:03:13;3.35;;;3.05;;
15228;SDS011;7717;47.792;12.076;2022-07-18T09:05:38;2.92;;;2.72;;
15228;SDS011;7717;47.792;12.076;2022-07-18T09:08:09;2.95;;;2.75;;
15228;SDS011;7717;47.792;12.076;2022-07-18T09:10:46;3.03;;;2.72;;
15228;SDS011;7717;47.792;12.076;2022-07-18T09:13:13;3.45;;;2.70;;
15228;SDS011;7717;47.792;12.076;2022-07-18T09:15:55;2.92;;;2.72;;
15228;SDS011;7717;47.792;12.076;2022-07-18T09:18:54;3.45;;;2.58;;
15228;SDS011;7717;47.792;12.076;2022-07-18T09:21:19;2.88;;;2.28;;
15228;SDS011;7717;47.792;12.076;2022-07-18T09:23:46;3.13;;;2.85;;
15228;SDS011;7717;47.792;12.076;2022-07-18T09:28:58;2.72;;;2.53;;
15228;SDS011;7717;47.792;12.076;2022-07-18T09:31:24;2.38;;;2.20;;
15228;SDS011;7717;47.792;12.076;2022-07-18T09:33:53;2.55;;;2.35;;
15228;SDS011;7717;47.792;12.076;2022-07-18T09:36:18;2.85;;;2.63;;
15228;SDS011;7717;47.792;12.076;2022-07-18T09:38:44;3.00;;;2.50;;
15228;SDS011;7717;47.792;12.076;2022-07-18T09:41:10;4.82;;;2.20;;
15228;SDS011;7717;47.792;12.076;2022-07-18T09:43:36;2.97;;;2.08;;
15228;SDS011;7717;47.792;12.076;2022-07-18T09:46:03;2.38;;;2.15;;
15228;SDS011;7717;47.792;12.076;2022-07-18T09:48:28;2.30;;;2.05;;
15228;SDS011;7717;47.792;12.076;2022-07-18T09:50:55;2.03;;;1.92;;
15228;SDS011;7717;47.792;12.076;2022-07-18T09:53:21;2.33;;;2.05;;
15228;SDS011;7717;47.792;12.076;2022-07-18T09:55:56;2.42;;;2.08;;
15228;SDS011;7717;47.792;12.076;2022-07-18T09:58:22;2.03;;;1.92;;
15228;SDS011;7717;47.792;12.076;2022-07-18T10:00:49;3.15;;;1.85;;
15228;SDS011;7717;47.792;12.076;2022-07-18T10:03:14;2.95;;;2.00;;
15228;SDS011;7717;47.792;12.076;2022-07-18T10:05:40;1.88;;;1.67;;
15228;SDS011;7717;47.792;12.076;2022-07-18T10:08:07;3.22;;;2.40;;
15228;SDS011;7717;47.792;12.076;2022-07-18T10:10:33;2.13;;;1.83;;
15228;SDS011;7717;47.792;12.076;2022-07-18T10:12:59;5.25;;;2.22;;
15228;SDS011;7717;47.792;12.076;2022-07-18T10:15:26;1.83;;;1.73;;
15228;SDS011;7717;47.792;12.076;2022-07-18T10:17:54;2.20;;;2.10;;
15228;SDS011;7717;47.792;12.076;2022-07-18T10:20:30;2.17;;;2.00;;
15228;SDS011;7717;47.792;12.076;2022-07-18T10:22:56;1.95;;;1.85;;
15228;SDS011;7717;47.792;12.076;2022-07-18T10:25:22;1.63;;;1.58;;
15228;SDS011;7717;47.792;12.076;2022-07-18T10:27:54;2.05;;;1.73;;
15228;SDS011;7717;47.792;12.076;2022-07-18T10:30:45;2.45;;;2.22;;
15228;SDS011;7717;47.792;12.076;2022-07-18T10:36:02;1.90;;;1.80;;
15228;SDS011;7717;47.792;12.076;2022-07-18T10:38:30;1.77;;;1.67;;
15228;SDS011;7717;47.792;12.076;2022-07-18T10:41:06;1.85;;;1.60;;
15228;SDS011;7717;47.792;12.076;2022-07-18T10:43:36;2.08;;;1.75;;
15228;SDS011;7717;47.792;12.076;2022-07-18T10:46:02;1.98;;;1.88;;
15228;SDS011;7717;47.792;12.076;2022-07-18T10:51:12;1.77;;;1.67;;
15228;SDS011;7717;47.792;12.076;2022-07-18T10:54:22;3.95;;;1.80;;
15228;SDS011;7717;47.792;12.076;2022-07-18T10:57:04;2.00;;;1.80;;
15228;SDS011;7717;47.792;12.076;2022-07-18T10:59:18;1.90;;;1.55;;
15228;SDS011;7717;47.792;12.076;2022-07-18T11:01:53;2.47;;;1.90;;
15228;SDS011;7717;47.792;12.076;2022-07-18T11:04:29;1.80;;;1.70;;
15228;SDS011;7717;47.792;12.076;2022-07-18T11:07:14;1.77;;;1.48;;
15228;SDS011;7717;47.792;12.076;2022-07-18T11:15:08;2.08;;;1.40;;
15228;SDS011;7717;47.792;12.076;2022-07-18T11:17:53;1.50;;;1.30;;
15228;SDS011;7717;47.792;12.076;2022-07-18T11:20:22;1.70;;;1.60;;
15228;SDS011;7717;47.792;12.076;2022-07-18T11:22:48;2.53;;;1.08;;
15228;SDS011;7717;47.792;12.076;2022-07-18T11:25:13;1.80;;;1.20;;
15228;SDS011;7717;47.792;12.076;2022-07-18T11:27:39;2.50;;;1.00;;
15228;SDS011;7717;47.792;12.076;2022-07-18T11:30:05;1.13;;;1.10;;
15228;SDS011;7717;47.792;12.076;2022-07-18T11:32:30;1.25;;;1.15;;
15228;SDS011;7717;47.792;12.076;2022-07-18T11:34:58;1.10;;;1.10;;
15228;SDS011;7717;47.792;12.076;2022-07-18T11:37:25;1.13;;;1.13;;
15228;SDS011;7717;47.792;12.076;2022-07-18T11:39:50;1.00;;;1.00;;
15228;SDS011;7717;47.792;12.076;2022-07-18T11:42:15;1.10;;;1.10;;
15228;SDS011;7717;47.792;12.076;2022-07-18T11:44:43;1.20;;;1.10;;
15228;SDS011;7717;47.792;12.076;2022-07-18T11:47:09;1.70;;;1.20;;
15228;SDS011;7717;47.792;12.076;2022-07-18T11:49:36;1.30;;;1.20;;
15228;SDS011;7717;47.792;12.076;2022-07-18T11:52:02;1.23;;;1.13;;
15228;SDS011;7717;47.792;12.076;2022-07-18T11:54:27;1.17;;;1.13;;
15228;SDS011;7717;47.792;12.076;2022-07-18T11:56:54;1.42;;;1.33;;
15228;SDS011;7717;47.792;12.076;2022-07-18T11:59:20;1.10;;;1.10;;
15228;SDS011;7717;47.792;12.076;2022-07-18T12:01:45;1.88;;;1.30;;
15228;SDS011;7717;47.792;12.076;2022-07-18T12:04:23;1.23;;;1.15;;
15228;SDS011;7717;47.792;12.076;2022-07-18T12:09:34;1.17;;;1.17;;
15228;SDS011;7717;47.792;12.076;2022-07-18T12:12:07;1.58;;;1.10;;
15228;SDS011;7717;47.792;12.076;2022-07-18T12:14:32;1.17;;;1.08;;
15228;SDS011;7717;47.792;12.076;2022-07-18T12:16:57;2.33;;;1.30;;
15228;SDS011;7717;47.792;12.076;2022-07-18T12:19:31;1.88;;;1.20;;
15228;SDS011;7717;47.792;12.076;2022-07-18T12:27:06;1.20;;;1.10;;
15228;SDS011;7717;47.792;12.076;2022-07-18T12:32:22;1.35;;;1.30;;
15228;SDS011;7717;47.792;12.076;2022-07-18T12:35:00;1.42;;;1.23;;
15228;SDS011;7717;47.792;12.076;2022-07-18T12:37:26;1.27;;;1.17;;
15228;SDS011;7717;47.792;12.076;2022-07-18T12:39:58;2.05;;;1.30;;
15228;SDS011;7717;47.792;12.076;2022-07-18T12:42:27;1.35;;;1.25;;
15228;SDS011;7717;47.792;12.076;2022-07-18T12:44:52;1.13;;;1.13;;
15228;SDS011;7717;47.792;12.076;2022-07-18T12:47:17;1.10;;;1.10;;
15228;SDS011;7717;47.792;12.076;2022-07-18T12:49:43;2.07;;;1.17;;
15228;SDS011;7717;47.792;12.076;2022-07-18T12:52:08;1.07;;;0.90;;
15228;SDS011;7717;47.792;12.076;2022-07-18T12:54:34;1.67;;;1.58;;
15228;SDS011;7717;47.792;12.076;2022-07-18T12:56:59;1.00;;;1.00;;
15228;SDS011;7717;47.792;12.076;2022-07-18T12:59:24;1.52;;;1.00;;
15228;SDS011;7717;47.792;12.076;2022-07-18T13:01:50;1.23;;;1.00;;
15228;SDS011;7717;47.792;12.076;2022-07-18T13:04:15;1.40;;;1.30;;
15228;SDS011;7717;47.792;12.076;2022-07-18T13:06:40;2.13;;;1.08;;
15228;SDS011;7717;47.792;12.076;2022-07-18T13:09:05;1.02;;;1.00;;
15228;SDS011;7717;47.792;12.076;2022-07-18T13:11:31;1.40;;;1.30;;
15228;SDS011;7717;47.792;12.076;2022-07-18T13:13:56;1.50;;;0.95;;
15228;SDS011;7717;47.792;12.076;2022-07-18T13:16:21;1.15;;;1.15;;
15228;SDS011;7717;47.792;12.076;2022-07-18T13:18:49;1.20;;;1.10;;
15228;SDS011;7717;47.792;12.076;2022-07-18T13:21:14;2.17;;;1.13;;
15228;SDS011;7717;47.792;12.076;2022-07-18T13:23:41;1.10;;;1.00;;
15228;SDS011;7717;47.792;12.076;2022-07-18T13:26:07;2.50;;;1.52;;
15228;SDS011;7717;47.792;12.076;2022-07-18T13:28:32;1.17;;;1.00;;
15228;SDS011;7717;47.792;12.076;2022-07-18T13:30:57;1.90;;;1.03;;
15228;SDS011;7717;47.792;12.076;2022-07-18T13:33:23;6.93;;;1.27;;
15228;SDS011;7717;47.792;12.076;2022-07-18T13:35:49;1.33;;;1.13;;
15228;SDS011;7717;47.792;12.076;2022-07-18T13:38:14;0.85;;;0.85;;
15228;SDS011;7717;47.792;12.076;2022-07-18T13:40:39;0.95;;;0.90;;
15228;SDS011;7717;47.792;12.076;2022-07-18T13:43:04;1.52;;;1.10;;
15228;SDS011;7717;47.792;12.076;2022-07-18T13:45:30;0.90;;;0.90;;
15228;SDS011;7717;47.792;12.076;2022-07-18T13:47:55;2.10;;;1.05;;
15228;SDS011;7717;47.792;12.076;2022-07-18T13:50:20;1.20;;;0.93;;
15228;SDS011;7717;47.792;12.076;2022-07-18T13:52:46;1.75;;;1.00;;
15228;SDS011;7717;47.792;12.076;2022-07-18T13:55:11;1.38;;;1.08;;
15228;SDS011;7717;47.792;12.076;2022-07-18T13:57:36;1.85;;;1.20;;
15228;SDS011;7717;47.792;12.076;2022-07-18T14:00:06;1.10;;;1.00;;
15228;SDS011;7717;47.792;12.076;2022-07-18T14:02:33;1.40;;;1.30;;
15228;SDS011;7717;47.792;12.076;2022-07-18T14:04:58;1.45;;;1.10;;
15228;SDS011;7717;47.792;12.076;2022-07-18T14:07:23;1.20;;;1.10;;
15228;SDS011;7717;47.792;12.076;2022-07-18T14:09:49;1.40;;;1.27;;
15228;SDS011;7717;47.792;12.076;2022-07-18T14:12:15;1.30;;;1.10;;
15228;SDS011;7717;47.792;12.076;2022-07-18T14:14:40;0.68;;;0.68;;
15228;SDS011;7717;47.792;12.076;2022-07-18T14:17:06;3.38;;;1.40;;
15228;SDS011;7717;47.792;12.076;2022-07-18T14:19:31;0.95;;;0.95;;
15228;SDS011;7717;47.792;12.076;2022-07-18T14:21:56;1.70;;;1.27;;
15228;SDS011;7717;47.792;12.076;2022-07-18T14:24:21;1.17;;;1.08;;
15228;SDS011;7717;47.792;12.076;2022-07-18T14:26:46;0.90;;;0.88;;
15228;SDS011;7717;47.792;12.076;2022-07-18T14:29:12;1.33;;;1.30;;
15228;SDS011;7717;47.792;12.076;2022-07-18T14:31:37;1.25;;;1.15;;
15228;SDS011;7717;47.792;12.076;2022-07-18T14:34:02;1.70;;;1.20;;
15228;SDS011;7717;47.792;12.076;2022-07-18T14:36:27;1.25;;;1.25;;
15228;SDS011;7717;47.792;12.076;2022-07-18T14:38:54;2.88;;;1.40;;
15228;SDS011;7717;47.792;12.076;2022-07-18T14:41:20;0.85;;;0.85;;
15228;SDS011;7717;47.792;12.076;2022-07-18T14:43:45;1.10;;;1.10;;
15228;SDS011;7717;47.792;12.076;2022-07-18T14:46:10;1.13;;;1.02;;
15228;SDS011;7717;47.792;12.076;2022-07-18T14:48:35;2.47;;;1.40;;
15228;SDS011;7717;47.792;12.076;2022-07-18T14:51:01;2.45;;;1.20;;
15228;SDS011;7717;47.792;12.076;2022-07-18T14:53:26;1.42;;;1.10;;
15228;SDS011;7717;47.792;12.076;2022-07-18T14:55:51;1.65;;;1.30;;
15228;SDS011;7717;47.792;12.076;2022-07-18T14:58:17;1.88;;;1.00;;
15228;SDS011;7717;47.792;12.076;2022-07-18T15:00:42;2.50;;;1.00;;
15228;SDS011;7717;47.792;12.076;2022-07-18T15:03:08;1.00;;;0.98;;
15228;SDS011;7717;47.792;12.076;2022-07-18T15:05:33;1.58;;;1.15;;
15228;SDS011;7717;47.792;12.076;2022-07-18T15:07:58;1.30;;;1.02;;